Springersville, Indiana
Current Conditions -  °F | °C
As of 12:55 PM on Friday 21 Nov 2014 (Local Time) from KI67 Reporting Station
Clear Clear  
Wind Chill: 26°   Ceiling: Unl
Heat Index: 32°   Visibility: 10mi
Dew Point: 12°   Wind: 7mph
Humidity: 44%   Direction: 170°S
Pressure: 30.51"   Gusts: NA
Location:  39.6926°N, 84.9821°W
Report Text: KI67 211755Z AUTO 17006KT 10SM CLR 00/M11 A3051 RMK AO1
Loading
Personal Weather Stations






























Interactive Weather Map New forecast layout! Learn more

10-Day Weather Forecast

Advertisements
Track Severe Weather on mobile